sensor_id;sensor_type;location;lat;lon;timestamp;pressure;altitude;pressure_sealevel;temperature
23208;BMP180;11773;52.570;13.052;2023-11-19T00:01:29;101174.00;;;10.20
23208;BMP180;11773;52.570;13.052;2023-11-19T00:03:58;101177.00;;;10.20
23208;BMP180;11773;52.570;13.052;2023-11-19T00:06:28;101147.00;;;10.20
23208;BMP180;11773;52.570;13.052;2023-11-19T00:08:58;101138.00;;;10.10
23208;BMP180;11773;52.570;13.052;2023-11-19T00:11:28;101141.00;;;10.10
23208;BMP180;11773;52.570;13.052;2023-11-19T00:13:58;101132.00;;;10.10
23208;BMP180;11773;52.570;13.052;2023-11-19T00:16:27;101128.00;;;10.10
23208;BMP180;11773;52.570;13.052;2023-11-19T00:18:57;101133.00;;;10.10
23208;BMP180;11773;52.570;13.052;2023-11-19T00:21:26;101123.00;;;10.10
23208;BMP180;11773;52.570;13.052;2023-11-19T00:23:57;101130.00;;;10.10
23208;BMP180;11773;52.570;13.052;2023-11-19T00:26:27;101135.00;;;10.10
23208;BMP180;11773;52.570;13.052;2023-11-19T00:28:56;101115.00;;;10.10
23208;BMP180;11773;52.570;13.052;2023-11-19T00:31:26;101115.00;;;10.10
23208;BMP180;11773;52.570;13.052;2023-11-19T00:33:56;101118.00;;;10.10
23208;BMP180;11773;52.570;13.052;2023-11-19T00:36:26;101088.00;;;10.10
23208;BMP180;11773;52.570;13.052;2023-11-19T00:38:56;101082.00;;;10.10
23208;BMP180;11773;52.570;13.052;2023-11-19T00:41:25;101078.00;;;10.10
23208;BMP180;11773;52.570;13.052;2023-11-19T00:43:55;101064.00;;;10.10
23208;BMP180;11773;52.570;13.052;2023-11-19T00:46:24;101055.00;;;10.10
23208;BMP180;11773;52.570;13.052;2023-11-19T00:48:54;101050.00;;;10.20
23208;BMP180;11773;52.570;13.052;2023-11-19T00:51:24;101045.00;;;10.20
23208;BMP180;11773;52.570;13.052;2023-11-19T00:53:53;101044.00;;;10.20
23208;BMP180;11773;52.570;13.052;2023-11-19T00:56:23;101034.00;;;10.20
23208;BMP180;11773;52.570;13.052;2023-11-19T00:58:53;101032.00;;;10.20
23208;BMP180;11773;52.570;13.052;2023-11-19T01:01:23;101000.00;;;10.20
23208;BMP180;11773;52.570;13.052;2023-11-19T01:03:53;100996.00;;;10.20
23208;BMP180;11773;52.570;13.052;2023-11-19T01:06:31;100992.00;;;10.20
23208;BMP180;11773;52.570;13.052;2023-11-19T01:09:01;100974.00;;;10.20
23208;BMP180;11773;52.570;13.052;2023-11-19T01:11:30;100977.00;;;10.20
23208;BMP180;11773;52.570;13.052;2023-11-19T01:14:00;100975.00;;;10.20
23208;BMP180;11773;52.570;13.052;2023-11-19T01:16:30;100984.00;;;10.30
23208;BMP180;11773;52.570;13.052;2023-11-19T01:19:00;100955.00;;;10.30
23208;BMP180;11773;52.570;13.052;2023-11-19T01:21:33;100961.00;;;10.30
23208;BMP180;11773;52.570;13.052;2023-11-19T01:24:02;100961.00;;;10.20
23208;BMP180;11773;52.570;13.052;2023-11-19T01:26:33;100957.00;;;10.20
23208;BMP180;11773;52.570;13.052;2023-11-19T01:29:03;100950.00;;;10.30
23208;BMP180;11773;52.570;13.052;2023-11-19T01:31:33;100930.00;;;10.30
23208;BMP180;11773;52.570;13.052;2023-11-19T01:34:02;100923.00;;;10.30
23208;BMP180;11773;52.570;13.052;2023-11-19T01:36:32;100908.00;;;10.30
23208;BMP180;11773;52.570;13.052;2023-11-19T01:39:01;100900.00;;;10.30
23208;BMP180;11773;52.570;13.052;2023-11-19T01:41:38;100900.00;;;10.30
23208;BMP180;11773;52.570;13.052;2023-11-19T01:44:08;100915.00;;;10.30
23208;BMP180;11773;52.570;13.052;2023-11-19T01:46:43;100894.00;;;10.30
23208;BMP180;11773;52.570;13.052;2023-11-19T01:49:15;100869.00;;;10.30
23208;BMP180;11773;52.570;13.052;2023-11-19T01:51:48;100866.00;;;10.40
23208;BMP180;11773;52.570;13.052;2023-11-19T01:54:18;100869.00;;;10.40
23208;BMP180;11773;52.570;13.052;2023-11-19T01:56:48;100866.00;;;10.40
23208;BMP180;11773;52.570;13.052;2023-11-19T01:59:18;100859.00;;;10.40
23208;BMP180;11773;52.570;13.052;2023-11-19T02:01:50;100834.00;;;10.30
23208;BMP180;11773;52.570;13.052;2023-11-19T02:04:21;100827.00;;;10.30
23208;BMP180;11773;52.570;13.052;2023-11-19T02:06:54;100815.00;;;10.30
23208;BMP180;11773;52.570;13.052;2023-11-19T02:09:25;100820.00;;;10.30
23208;BMP180;11773;52.570;13.052;2023-11-19T02:11:56;100790.00;;;10.30
23208;BMP180;11773;52.570;13.052;2023-11-19T02:14:27;100785.00;;;10.40
23208;BMP180;11773;52.570;13.052;2023-11-19T02:16:57;100800.00;;;10.40
23208;BMP180;11773;52.570;13.052;2023-11-19T02:19:27;100790.00;;;10.40
23208;BMP180;11773;52.570;13.052;2023-11-19T02:21:57;100790.00;;;10.40
23208;BMP180;11773;52.570;13.052;2023-11-19T02:24:28;100797.00;;;10.40
23208;BMP180;11773;52.570;13.052;2023-11-19T02:27:08;100784.00;;;10.40
23208;BMP180;11773;52.570;13.052;2023-11-19T02:29:38;100774.00;;;10.40
23208;BMP180;11773;52.570;13.052;2023-11-19T02:32:08;100776.00;;;10.40
23208;BMP180;11773;52.570;13.052;2023-11-19T02:34:38;100766.00;;;10.40
23208;BMP180;11773;52.570;13.052;2023-11-19T02:37:07;100742.00;;;10.50
23208;BMP180;11773;52.570;13.052;2023-11-19T02:39:38;100746.00;;;10.50
23208;BMP180;11773;52.570;13.052;2023-11-19T02:42:08;100736.00;;;10.50
23208;BMP180;11773;52.570;13.052;2023-11-19T02:44:38;100731.00;;;10.50
23208;BMP180;11773;52.570;13.052;2023-11-19T02:47:08;100713.00;;;10.50
23208;BMP180;11773;52.570;13.052;2023-11-19T02:49:37;100700.00;;;10.50
23208;BMP180;11773;52.570;13.052;2023-11-19T02:52:07;100707.00;;;10.50
23208;BMP180;11773;52.570;13.052;2023-11-19T02:54:39;100706.00;;;10.50
23208;BMP180;11773;52.570;13.052;2023-11-19T02:57:09;100714.00;;;10.50
23208;BMP180;11773;52.570;13.052;2023-11-19T02:59:42;100722.00;;;10.50
23208;BMP180;11773;52.570;13.052;2023-11-19T03:02:12;100712.00;;;10.50
23208;BMP180;11773;52.570;13.052;2023-11-19T03:04:43;100721.00;;;10.50
23208;BMP180;11773;52.570;13.052;2023-11-19T03:07:14;100716.00;;;10.50
23208;BMP180;11773;52.570;13.052;2023-11-19T03:09:44;100694.00;;;10.50
23208;BMP180;11773;52.570;13.052;2023-11-19T03:12:13;100710.00;;;10.50
23208;BMP180;11773;52.570;13.052;2023-11-19T03:14:43;100690.00;;;10.50
23208;BMP180;11773;52.570;13.052;2023-11-19T03:17:13;100691.00;;;10.50
23208;BMP180;11773;52.570;13.052;2023-11-19T03:19:42;100664.00;;;10.50
23208;BMP180;11773;52.570;13.052;2023-11-19T03:22:12;100647.00;;;10.50
23208;BMP180;11773;52.570;13.052;2023-11-19T03:24:42;100646.00;;;10.50
23208;BMP180;11773;52.570;13.052;2023-11-19T03:27:11;100648.00;;;10.50
23208;BMP180;11773;52.570;13.052;2023-11-19T03:29:42;100650.00;;;10.50
23208;BMP180;11773;52.570;13.052;2023-11-19T03:32:12;100646.00;;;10.40
23208;BMP180;11773;52.570;13.052;2023-11-19T03:34:42;100638.00;;;10.40
23208;BMP180;11773;52.570;13.052;2023-11-19T03:37:12;100616.00;;;10.40
23208;BMP180;11773;52.570;13.052;2023-11-19T03:39:44;100609.00;;;10.40
23208;BMP180;11773;52.570;13.052;2023-11-19T03:42:13;100592.00;;;10.40
23208;BMP180;11773;52.570;13.052;2023-11-19T03:44:43;100577.00;;;10.40
23208;BMP180;11773;52.570;13.052;2023-11-19T03:47:12;100580.00;;;10.30
23208;BMP180;11773;52.570;13.052;2023-11-19T03:49:42;100581.00;;;10.30
23208;BMP180;11773;52.570;13.052;2023-11-19T03:52:12;100573.00;;;10.30
23208;BMP180;11773;52.570;13.052;2023-11-19T03:54:44;100572.00;;;10.30
23208;BMP180;11773;52.570;13.052;2023-11-19T03:57:14;100550.00;;;10.30
23208;BMP180;11773;52.570;13.052;2023-11-19T03:59:45;100548.00;;;10.30
23208;BMP180;11773;52.570;13.052;2023-11-19T04:02:15;100547.00;;;10.30
23208;BMP180;11773;52.570;13.052;2023-11-19T04:04:45;100545.00;;;10.30
23208;BMP180;11773;52.570;13.052;2023-11-19T04:07:15;100545.00;;;10.30
23208;BMP180;11773;52.570;13.052;2023-11-19T04:09:45;100533.00;;;10.30
23208;BMP180;11773;52.570;13.052;2023-11-19T04:12:15;100541.00;;;10.30
23208;BMP180;11773;52.570;13.052;2023-11-19T04:14:44;100532.00;;;10.30
23208;BMP180;11773;52.570;13.052;2023-11-19T04:17:14;100520.00;;;10.40
23208;BMP180;11773;52.570;13.052;2023-11-19T04:19:44;100529.00;;;10.30
23208;BMP180;11773;52.570;13.052;2023-11-19T04:22:14;100527.00;;;10.40
23208;BMP180;11773;52.570;13.052;2023-11-19T04:24:43;100536.00;;;10.40
23208;BMP180;11773;52.570;13.052;2023-11-19T04:27:15;100528.00;;;10.40
23208;BMP180;11773;52.570;13.052;2023-11-19T04:29:44;100519.00;;;10.40
23208;BMP180;11773;52.570;13.052;2023-11-19T04:32:15;100512.00;;;10.40
23208;BMP180;11773;52.570;13.052;2023-11-19T04:34:45;100506.00;;;10.40
23208;BMP180;11773;52.570;13.052;2023-11-19T04:37:14;100516.00;;;10.50
23208;BMP180;11773;52.570;13.052;2023-11-19T04:39:45;100529.00;;;10.50
23208;BMP180;11773;52.570;13.052;2023-11-19T04:42:15;100515.00;;;10.50
23208;BMP180;11773;52.570;13.052;2023-11-19T04:44:45;100491.00;;;10.50
23208;BMP180;11773;52.570;13.052;2023-11-19T04:47:15;100486.00;;;10.50
23208;BMP180;11773;52.570;13.052;2023-11-19T04:49:45;100474.00;;;10.50
23208;BMP180;11773;52.570;13.052;2023-11-19T04:52:14;100477.00;;;10.50
23208;BMP180;11773;52.570;13.052;2023-11-19T04:54:44;100455.00;;;10.50
23208;BMP180;11773;52.570;13.052;2023-11-19T04:57:14;100441.00;;;10.50
23208;BMP180;11773;52.570;13.052;2023-11-19T04:59:44;100420.00;;;10.50
23208;BMP180;11773;52.570;13.052;2023-11-19T05:02:13;100428.00;;;10.50
23208;BMP180;11773;52.570;13.052;2023-11-19T05:04:44;100426.00;;;10.50
23208;BMP180;11773;52.570;13.052;2023-11-19T05:07:15;100415.00;;;10.50
23208;BMP180;11773;52.570;13.052;2023-11-19T05:09:45;100410.00;;;10.50
23208;BMP180;11773;52.570;13.052;2023-11-19T05:12:14;100425.00;;;10.50
23208;BMP180;11773;52.570;13.052;2023-11-19T05:14:44;100395.00;;;10.50
23208;BMP180;11773;52.570;13.052;2023-11-19T05:17:16;100404.00;;;10.50
23208;BMP180;11773;52.570;13.052;2023-11-19T05:19:46;100391.00;;;10.50
23208;BMP180;11773;52.570;13.052;2023-11-19T05:22:18;100387.00;;;10.50
23208;BMP180;11773;52.570;13.052;2023-11-19T05:24:49;100389.00;;;10.50
23208;BMP180;11773;52.570;13.052;2023-11-19T05:27:18;100393.00;;;10.50
23208;BMP180;11773;52.570;13.052;2023-11-19T05:29:48;100370.00;;;10.50
23208;BMP180;11773;52.570;13.052;2023-11-19T05:32:18;100367.00;;;10.50
23208;BMP180;11773;52.570;13.052;2023-11-19T05:34:47;100355.00;;;10.50
23208;BMP180;11773;52.570;13.052;2023-11-19T05:37:19;100360.00;;;10.50
23208;BMP180;11773;52.570;13.052;2023-11-19T05:39:49;100351.00;;;10.50
23208;BMP180;11773;52.570;13.052;2023-11-19T05:42:18;100356.00;;;10.50
23208;BMP180;11773;52.570;13.052;2023-11-19T05:44:48;100345.00;;;10.60
23208;BMP180;11773;52.570;13.052;2023-11-19T05:47:18;100334.00;;;10.60
23208;BMP180;11773;52.570;13.052;2023-11-19T05:49:47;100353.00;;;10.60
23208;BMP180;11773;52.570;13.052;2023-11-19T05:52:17;100335.00;;;10.60
23208;BMP180;11773;52.570;13.052;2023-11-19T05:54:47;100348.00;;;10.60
23208;BMP180;11773;52.570;13.052;2023-11-19T05:57:18;100354.00;;;10.60
23208;BMP180;11773;52.570;13.052;2023-11-19T05:59:49;100339.00;;;10.60
23208;BMP180;11773;52.570;13.052;2023-11-19T06:02:20;100320.00;;;10.60
23208;BMP180;11773;52.570;13.052;2023-11-19T06:04:50;100304.00;;;10.60
23208;BMP180;11773;52.570;13.052;2023-11-19T06:07:19;100310.00;;;10.60
23208;BMP180;11773;52.570;13.052;2023-11-19T06:09:49;100300.00;;;10.60
23208;BMP180;11773;52.570;13.052;2023-11-19T06:12:18;100330.00;;;10.60
23208;BMP180;11773;52.570;13.052;2023-11-19T06:14:48;100312.00;;;10.60
23208;BMP180;11773;52.570;13.052;2023-11-19T06:17:18;100303.00;;;10.60
23208;BMP180;11773;52.570;13.052;2023-11-19T06:19:47;100284.00;;;10.70
23208;BMP180;11773;52.570;13.052;2023-11-19T06:22:17;100278.00;;;10.70
23208;BMP180;11773;52.570;13.052;2023-11-19T06:24:46;100267.00;;;10.70
23208;BMP180;11773;52.570;13.052;2023-11-19T06:27:16;100282.00;;;10.70
23208;BMP180;11773;52.570;13.052;2023-11-19T06:29:45;100282.00;;;10.70
23208;BMP180;11773;52.570;13.052;2023-11-19T06:32:15;100277.00;;;10.70
23208;BMP180;11773;52.570;13.052;2023-11-19T06:34:45;100272.00;;;10.70
23208;BMP180;11773;52.570;13.052;2023-11-19T06:37:14;100280.00;;;10.70
23208;BMP180;11773;52.570;13.052;2023-11-19T06:39:44;100271.00;;;10.70
23208;BMP180;11773;52.570;13.052;2023-11-19T06:42:14;100271.00;;;10.80
23208;BMP180;11773;52.570;13.052;2023-11-19T06:44:43;100278.00;;;10.80
23208;BMP180;11773;52.570;13.052;2023-11-19T06:47:13;100281.00;;;10.80
23208;BMP180;11773;52.570;13.052;2023-11-19T06:49:44;100291.00;;;10.90
23208;BMP180;11773;52.570;13.052;2023-11-19T06:52:14;100277.00;;;10.90
23208;BMP180;11773;52.570;13.052;2023-11-19T06:54:45;100267.00;;;10.90
23208;BMP180;11773;52.570;13.052;2023-11-19T06:57:15;100284.00;;;10.90
23208;BMP180;11773;52.570;13.052;2023-11-19T06:59:45;100279.00;;;10.90
23208;BMP180;11773;52.570;13.052;2023-11-19T07:02:14;100267.00;;;11.00
23208;BMP180;11773;52.570;13.052;2023-11-19T07:04:44;100263.00;;;11.00
23208;BMP180;11773;52.570;13.052;2023-11-19T07:07:14;100275.00;;;11.10
23208;BMP180;11773;52.570;13.052;2023-11-19T07:09:43;100281.00;;;11.10
23208;BMP180;11773;52.570;13.052;2023-11-19T07:12:13;100269.00;;;11.10
23208;BMP180;11773;52.570;13.052;2023-11-19T07:14:42;100264.00;;;11.10
23208;BMP180;11773;52.570;13.052;2023-11-19T07:17:12;100278.00;;;11.20
23208;BMP180;11773;52.570;13.052;2023-11-19T07:19:42;100266.00;;;11.20
23208;BMP180;11773;52.570;13.052;2023-11-19T07:22:12;100282.00;;;11.20
23208;BMP180;11773;52.570;13.052;2023-11-19T07:24:42;100266.00;;;11.20
23208;BMP180;11773;52.570;13.052;2023-11-19T07:27:11;100276.00;;;11.30
23208;BMP180;11773;52.570;13.052;2023-11-19T07:29:44;100273.00;;;11.30
23208;BMP180;11773;52.570;13.052;2023-11-19T07:32:14;100280.00;;;11.30
23208;BMP180;11773;52.570;13.052;2023-11-19T07:34:44;100259.00;;;11.30
23208;BMP180;11773;52.570;13.052;2023-11-19T07:37:13;100266.00;;;11.30
23208;BMP180;11773;52.570;13.052;2023-11-19T07:39:44;100269.00;;;11.30
23208;BMP180;11773;52.570;13.052;2023-11-19T07:42:14;100267.00;;;11.40
23208;BMP180;11773;52.570;13.052;2023-11-19T07:44:46;100273.00;;;11.40
23208;BMP180;11773;52.570;13.052;2023-11-19T07:47:16;100271.00;;;11.40
23208;BMP180;11773;52.570;13.052;2023-11-19T07:49:46;100266.00;;;11.50
23208;BMP180;11773;52.570;13.052;2023-11-19T07:52:16;100275.00;;;11.50
23208;BMP180;11773;52.570;13.052;2023-11-19T07:54:47;100277.00;;;11.50
23208;BMP180;11773;52.570;13.052;2023-11-19T07:57:17;100274.00;;;11.60
23208;BMP180;11773;52.570;13.052;2023-11-19T07:59:47;100282.00;;;11.60
23208;BMP180;11773;52.570;13.052;2023-11-19T08:02:16;100266.00;;;11.70
23208;BMP180;11773;52.570;13.052;2023-11-19T08:04:46;100272.00;;;11.70
23208;BMP180;11773;52.570;13.052;2023-11-19T08:07:19;100270.00;;;11.70
23208;BMP180;11773;52.570;13.052;2023-11-19T08:09:48;100271.00;;;11.80
23208;BMP180;11773;52.570;13.052;2023-11-19T08:12:18;100262.00;;;11.80
23208;BMP180;11773;52.570;13.052;2023-11-19T08:14:47;100264.00;;;11.80
23208;BMP180;11773;52.570;13.052;2023-11-19T08:17:18;100257.00;;;11.90
23208;BMP180;11773;52.570;13.052;2023-11-19T08:19:48;100254.00;;;11.90
23208;BMP180;11773;52.570;13.052;2023-11-19T08:22:17;100250.00;;;11.90
23208;BMP180;11773;52.570;13.052;2023-11-19T08:24:47;100257.00;;;12.00
23208;BMP180;11773;52.570;13.052;2023-11-19T08:27:17;100249.00;;;12.00
23208;BMP180;11773;52.570;13.052;2023-11-19T08:29:46;100248.00;;;12.10
23208;BMP180;11773;52.570;13.052;2023-11-19T08:32:16;100243.00;;;12.10
23208;BMP180;11773;52.570;13.052;2023-11-19T08:34:45;100243.00;;;12.10
23208;BMP180;11773;52.570;13.052;2023-11-19T08:37:15;100241.00;;;12.20
23208;BMP180;11773;52.570;13.052;2023-11-19T08:39:50;100248.00;;;12.20
23208;BMP180;11773;52.570;13.052;2023-11-19T08:42:20;100235.00;;;12.30
23208;BMP180;11773;52.570;13.052;2023-11-19T08:44:50;100236.00;;;12.30
23208;BMP180;11773;52.570;13.052;2023-11-19T08:47:22;100247.00;;;12.40
23208;BMP180;11773;52.570;13.052;2023-11-19T08:49:53;100230.00;;;12.40
23208;BMP180;11773;52.570;13.052;2023-11-19T08:52:25;100242.00;;;12.50
23208;BMP180;11773;52.570;13.052;2023-11-19T08:54:54;100250.00;;;12.50
23208;BMP180;11773;52.570;13.052;2023-11-19T08:57:24;100245.00;;;12.50
23208;BMP180;11773;52.570;13.052;2023-11-19T08:59:54;100261.00;;;12.60
23208;BMP180;11773;52.570;13.052;2023-11-19T09:02:23;100249.00;;;12.60
23208;BMP180;11773;52.570;13.052;2023-11-19T09:04:53;100241.00;;;12.70
23208;BMP180;11773;52.570;13.052;2023-11-19T09:07:23;100255.00;;;12.70
23208;BMP180;11773;52.570;13.052;2023-11-19T09:09:53;100271.00;;;12.80
23208;BMP180;11773;52.570;13.052;2023-11-19T09:12:23;100269.00;;;12.80
23208;BMP180;11773;52.570;13.052;2023-11-19T09:14:53;100267.00;;;12.90
23208;BMP180;11773;52.570;13.052;2023-11-19T09:17:22;100254.00;;;12.90
23208;BMP180;11773;52.570;13.052;2023-11-19T09:19:52;100259.00;;;12.90
23208;BMP180;11773;52.570;13.052;2023-11-19T09:22:21;100265.00;;;13.00
23208;BMP180;11773;52.570;13.052;2023-11-19T09:24:51;100256.00;;;13.10
23208;BMP180;11773;52.570;13.052;2023-11-19T09:27:21;100261.00;;;13.10
23208;BMP180;11773;52.570;13.052;2023-11-19T09:29:51;100255.00;;;13.20
23208;BMP180;11773;52.570;13.052;2023-11-19T09:32:22;100250.00;;;13.20
23208;BMP180;11773;52.570;13.052;2023-11-19T09:34:52;100260.00;;;13.20
23208;BMP180;11773;52.570;13.052;2023-11-19T09:37:21;100242.00;;;13.30
23208;BMP180;11773;52.570;13.052;2023-11-19T09:39:51;100241.00;;;13.40
23208;BMP180;11773;52.570;13.052;2023-11-19T09:42:23;100230.00;;;13.40
23208;BMP180;11773;52.570;13.052;2023-11-19T09:44:54;100236.00;;;13.50
23208;BMP180;11773;52.570;13.052;2023-11-19T09:47:27;100234.00;;;13.50
23208;BMP180;11773;52.570;13.052;2023-11-19T09:49:58;100247.00;;;13.60
23208;BMP180;11773;52.570;13.052;2023-11-19T09:52:28;100225.00;;;13.60
23208;BMP180;11773;52.570;13.052;2023-11-19T09:54:57;100237.00;;;13.70
23208;BMP180;11773;52.570;13.052;2023-11-19T09:57:28;100237.00;;;13.80
23208;BMP180;11773;52.570;13.052;2023-11-19T10:00:00;100235.00;;;13.80
23208;BMP180;11773;52.570;13.052;2023-11-19T10:02:33;100237.00;;;13.80
23208;BMP180;11773;52.570;13.052;2023-11-19T10:05:07;100235.00;;;13.90
23208;BMP180;11773;52.570;13.052;2023-11-19T10:07:37;100237.00;;;13.90
23208;BMP180;11773;52.570;13.052;2023-11-19T10:10:07;100227.00;;;14.00
23208;BMP180;11773;52.570;13.052;2023-11-19T10:12:39;100229.00;;;14.00
23208;BMP180;11773;52.570;13.052;2023-11-19T10:15:17;100226.00;;;14.10
23208;BMP180;11773;52.570;13.052;2023-11-19T10:17:44;100225.00;;;14.10
23208;BMP180;11773;52.570;13.052;2023-11-19T10:20:14;100234.00;;;14.20
23208;BMP180;11773;52.570;13.052;2023-11-19T10:22:44;100222.00;;;14.20
23208;BMP180;11773;52.570;13.052;2023-11-19T10:25:23;100217.00;;;14.30
23208;BMP180;11773;52.570;13.052;2023-11-19T10:27:54;100219.00;;;14.40
23208;BMP180;11773;52.570;13.052;2023-11-19T10:30:27;100226.00;;;14.40
23208;BMP180;11773;52.570;13.052;2023-11-19T10:33:09;100233.00;;;14.50
23208;BMP180;11773;52.570;13.052;2023-11-19T10:35:57;100214.00;;;14.50
23208;BMP180;11773;52.570;13.052;2023-11-19T10:38:29;100230.00;;;14.60
23208;BMP180;11773;52.570;13.052;2023-11-19T10:40:59;100211.00;;;14.70
23208;BMP180;11773;52.570;13.052;2023-11-19T10:43:29;100217.00;;;14.70
23208;BMP180;11773;52.570;13.052;2023-11-19T10:46:10;100234.00;;;14.80
23208;BMP180;11773;52.570;13.052;2023-11-19T10:48:41;100235.00;;;14.80
23208;BMP180;11773;52.570;13.052;2023-11-19T10:51:11;100222.00;;;14.90
23208;BMP180;11773;52.570;13.052;2023-11-19T10:53:45;100215.00;;;15.00
23208;BMP180;11773;52.570;13.052;2023-11-19T10:56:19;100226.00;;;15.00
23208;BMP180;11773;52.570;13.052;2023-11-19T10:58:51;100224.00;;;15.10
23208;BMP180;11773;52.570;13.052;2023-11-19T11:01:45;100212.00;;;15.10
23208;BMP180;11773;52.570;13.052;2023-11-19T11:04:15;100207.00;;;15.10
23208;BMP180;11773;52.570;13.052;2023-11-19T11:06:48;100217.00;;;15.20
23208;BMP180;11773;52.570;13.052;2023-11-19T11:09:18;100222.00;;;15.20
23208;BMP180;11773;52.570;13.052;2023-11-19T11:11:48;100217.00;;;15.30
23208;BMP180;11773;52.570;13.052;2023-11-19T11:14:21;100202.00;;;15.30
23208;BMP180;11773;52.570;13.052;2023-11-19T11:16:53;100203.00;;;15.40
23208;BMP180;11773;52.570;13.052;2023-11-19T11:19:25;100203.00;;;15.40
23208;BMP180;11773;52.570;13.052;2023-11-19T11:21:56;100206.00;;;15.50
23208;BMP180;11773;52.570;13.052;2023-11-19T11:26:00;100198.00;;;15.60
23208;BMP180;11773;52.570;13.052;2023-11-19T11:27:57;100203.00;;;15.60
23208;BMP180;11773;52.570;13.052;2023-11-19T11:30:46;100206.00;;;15.70
23208;BMP180;11773;52.570;13.052;2023-11-19T11:36:24;100213.00;;;15.80
23208;BMP180;11773;52.570;13.052;2023-11-19T11:38:56;100212.00;;;15.80
23208;BMP180;11773;52.570;13.052;2023-11-19T11:41:29;100232.00;;;15.90
23208;BMP180;11773;52.570;13.052;2023-11-19T11:44:00;100211.00;;;16.00
23208;BMP180;11773;52.570;13.052;2023-11-19T11:49:09;100202.00;;;16.10
23208;BMP180;11773;52.570;13.052;2023-11-19T11:57:14;100216.00;;;16.20
23208;BMP180;11773;52.570;13.052;2023-11-19T11:59:49;100215.00;;;16.30
23208;BMP180;11773;52.570;13.052;2023-11-19T12:02:22;100220.00;;;16.30
23208;BMP180;11773;52.570;13.052;2023-11-19T12:04:53;100229.00;;;16.30
23208;BMP180;11773;52.570;13.052;2023-11-19T12:07:25;100227.00;;;16.40
23208;BMP180;11773;52.570;13.052;2023-11-19T12:10:09;100222.00;;;16.40
23208;BMP180;11773;52.570;13.052;2023-11-19T12:12:43;100219.00;;;16.40
23208;BMP180;11773;52.570;13.052;2023-11-19T12:15:13;100217.00;;;16.40
23208;BMP180;11773;52.570;13.052;2023-11-19T12:17:48;100207.00;;;16.50
23208;BMP180;11773;52.570;13.052;2023-11-19T12:20:22;100205.00;;;16.40
23208;BMP180;11773;52.570;13.052;2023-11-19T12:22:54;100202.00;;;16.50
23208;BMP180;11773;52.570;13.052;2023-11-19T12:25:24;100208.00;;;16.50
23208;BMP180;11773;52.570;13.052;2023-11-19T12:27:54;100195.00;;;16.50
23208;BMP180;11773;52.570;13.052;2023-11-19T12:30:25;100213.00;;;16.50
23208;BMP180;11773;52.570;13.052;2023-11-19T12:32:55;100206.00;;;16.50
23208;BMP180;11773;52.570;13.052;2023-11-19T12:35:25;100211.00;;;16.50
23208;BMP180;11773;52.570;13.052;2023-11-19T12:37:55;100207.00;;;16.50
23208;BMP180;11773;52.570;13.052;2023-11-19T12:40:25;100206.00;;;16.50
23208;BMP180;11773;52.570;13.052;2023-11-19T12:42:57;100212.00;;;16.50
23208;BMP180;11773;52.570;13.052;2023-11-19T12:45:37;100213.00;;;16.50
23208;BMP180;11773;52.570;13.052;2023-11-19T12:48:08;100211.00;;;16.50
23208;BMP180;11773;52.570;13.052;2023-11-19T12:50:58;100215.00;;;16.50
23208;BMP180;11773;52.570;13.052;2023-11-19T12:53:46;100207.00;;;16.50
23208;BMP180;11773;52.570;13.052;2023-11-19T12:56:11;100214.00;;;16.50
23208;BMP180;11773;52.570;13.052;2023-11-19T12:58:41;100200.00;;;16.50
23208;BMP180;11773;52.570;13.052;2023-11-19T13:01:17;100196.00;;;16.50
23208;BMP180;11773;52.570;13.052;2023-11-19T13:03:48;100199.00;;;16.50
23208;BMP180;11773;52.570;13.052;2023-11-19T13:06:19;100202.00;;;16.50
23208;BMP180;11773;52.570;13.052;2023-11-19T13:08:50;100213.00;;;16.50
23208;BMP180;11773;52.570;13.052;2023-11-19T13:11:35;100214.00;;;16.50
23208;BMP180;11773;52.570;13.052;2023-11-19T13:14:06;100203.00;;;16.50
23208;BMP180;11773;52.570;13.052;2023-11-19T13:16:40;100187.00;;;16.50
23208;BMP180;11773;52.570;13.052;2023-11-19T13:19:11;100207.00;;;16.50
23208;BMP180;11773;52.570;13.052;2023-11-19T13:21:41;100193.00;;;16.50
23208;BMP180;11773;52.570;13.052;2023-11-19T13:24:10;100200.00;;;16.50
23208;BMP180;11773;52.570;13.052;2023-11-19T13:26:40;100196.00;;;16.60
23208;BMP180;11773;52.570;13.052;2023-11-19T13:29:10;100192.00;;;16.60
23208;BMP180;11773;52.570;13.052;2023-11-19T13:31:39;100201.00;;;16.60
23208;BMP180;11773;52.570;13.052;2023-11-19T13:34:09;100208.00;;;16.60
23208;BMP180;11773;52.570;13.052;2023-11-19T13:36:38;100200.00;;;16.60
23208;BMP180;11773;52.570;13.052;2023-11-19T13:39:08;100211.00;;;16.60
23208;BMP180;11773;52.570;13.052;2023-11-19T13:41:38;100195.00;;;16.60
23208;BMP180;11773;52.570;13.052;2023-11-19T13:44:07;100198.00;;;16.60
23208;BMP180;11773;52.570;13.052;2023-11-19T13:46:37;100212.00;;;16.70
23208;BMP180;11773;52.570;13.052;2023-11-19T13:49:07;100199.00;;;16.70
23208;BMP180;11773;52.570;13.052;2023-11-19T13:51:37;100197.00;;;16.70
23208;BMP180;11773;52.570;13.052;2023-11-19T13:54:07;100199.00;;;16.70
23208;BMP180;11773;52.570;13.052;2023-11-19T13:56:36;100198.00;;;16.70
23208;BMP180;11773;52.570;13.052;2023-11-19T13:59:06;100203.00;;;16.70
23208;BMP180;11773;52.570;13.052;2023-11-19T14:01:37;100198.00;;;16.70
23208;BMP180;11773;52.570;13.052;2023-11-19T14:04:06;100216.00;;;16.70
23208;BMP180;11773;52.570;13.052;2023-11-19T14:06:37;100201.00;;;16.70
23208;BMP180;11773;52.570;13.052;2023-11-19T14:09:08;100204.00;;;16.70
23208;BMP180;11773;52.570;13.052;2023-11-19T14:11:38;100218.00;;;16.70
23208;BMP180;11773;52.570;13.052;2023-11-19T14:14:09;100220.00;;;16.70
23208;BMP180;11773;52.570;13.052;2023-11-19T14:16:38;100213.00;;;16.70